sensor_id;sensor_type;location;lat;lon;timestamp;P1;durP1;ratioP1;P2;durP2;ratioP2
5237;SDS011;2639;49.700;7.962;2022-12-18T04:09:04;771.13;;;718.83;;
5237;SDS011;2639;49.700;7.962;2022-12-18T04:12:19;906.77;;;846.37;;
5237;SDS011;2639;49.700;7.962;2022-12-18T04:15:29;854.77;;;798.63;;
5237;SDS011;2639;49.700;7.962;2022-12-18T04:18:45;863.77;;;805.10;;
5237;SDS011;2639;49.700;7.962;2022-12-18T04:21:55;864.53;;;807.13;;
5237;SDS011;2639;49.700;7.962;2022-12-18T04:25:07;861.30;;;803.93;;
5237;SDS011;2639;49.700;7.962;2022-12-18T04:28:29;922.43;;;854.57;;
5237;SDS011;2639;49.700;7.962;2022-12-18T04:31:39;923.97;;;861.87;;
5237;SDS011;2639;49.700;7.962;2022-12-18T04:34:50;907.53;;;845.20;;
5237;SDS011;2639;49.700;7.962;2022-12-18T04:37:59;961.10;;;892.30;;
5237;SDS011;2639;49.700;7.962;2022-12-18T04:41:11;924.87;;;859.73;;
5237;SDS011;2639;49.700;7.962;2022-12-18T04:44:22;914.93;;;851.40;;
5237;SDS011;2639;49.700;7.962;2022-12-18T04:47:31;895.20;;;834.27;;
5237;SDS011;2639;49.700;7.962;2022-12-18T04:50:41;848.73;;;792.33;;
5237;SDS011;2639;49.700;7.962;2022-12-18T04:53:51;847.43;;;789.23;;
5237;SDS011;2639;49.700;7.962;2022-12-18T04:57:02;837.57;;;780.37;;
5237;SDS011;2639;49.700;7.962;2022-12-18T05:00:12;842.83;;;785.40;;
5237;SDS011;2639;49.700;7.962;2022-12-18T05:03:22;841.83;;;783.73;;
5237;SDS011;2639;49.700;7.962;2022-12-18T05:06:32;871.37;;;808.73;;
5237;SDS011;2639;49.700;7.962;2022-12-18T05:09:42;867.87;;;805.80;;
5237;SDS011;2639;49.700;7.962;2022-12-18T05:12:55;887.97;;;827.40;;
5237;SDS011;2639;49.700;7.962;2022-12-18T05:16:08;847.47;;;788.53;;
5237;SDS011;2639;49.700;7.962;2022-12-18T05:19:18;844.37;;;785.30;;
5237;SDS011;2639;49.700;7.962;2022-12-18T05:22:28;907.20;;;841.30;;
5237;SDS011;2639;49.700;7.962;2022-12-18T05:25:38;928.93;;;857.57;;
5237;SDS011;2639;49.700;7.962;2022-12-18T05:28:50;831.93;;;774.60;;
5237;SDS011;2639;49.700;7.962;2022-12-18T05:31:59;878.27;;;814.00;;
5237;SDS011;2639;49.700;7.962;2022-12-18T05:35:10;933.33;;;861.37;;
5237;SDS011;2639;49.700;7.962;2022-12-18T05:38:20;926.63;;;853.20;;
5237;SDS011;2639;49.700;7.962;2022-12-18T05:41:31;904.50;;;836.47;;
5237;SDS011;2639;49.700;7.962;2022-12-18T05:44:42;919.47;;;847.73;;
5237;SDS011;2639;49.700;7.962;2022-12-18T05:47:52;916.90;;;848.20;;
5237;SDS011;2639;49.700;7.962;2022-12-18T05:51:04;910.67;;;841.97;;
5237;SDS011;2639;49.700;7.962;2022-12-18T05:54:15;921.23;;;850.20;;
5237;SDS011;2639;49.700;7.962;2022-12-18T05:57:25;881.67;;;817.60;;
5237;SDS011;2639;49.700;7.962;2022-12-18T06:00:37;898.23;;;831.37;;
5237;SDS011;2639;49.700;7.962;2022-12-18T06:38:09;802.57;;;751.07;;
5237;SDS011;2639;49.700;7.962;2022-12-18T06:41:19;741.53;;;694.10;;
5237;SDS011;2639;49.700;7.962;2022-12-18T06:44:30;697.97;;;654.23;;
5237;SDS011;2639;49.700;7.962;2022-12-18T06:47:40;712.80;;;668.47;;
5237;SDS011;2639;49.700;7.962;2022-12-18T06:50:49;707.07;;;663.47;;
5237;SDS011;2639;49.700;7.962;2022-12-18T06:54:00;800.57;;;749.23;;
5237;SDS011;2639;49.700;7.962;2022-12-18T06:57:10;709.40;;;665.00;;
5237;SDS011;2639;49.700;7.962;2022-12-18T07:00:20;698.57;;;655.13;;
5237;SDS011;2639;49.700;7.962;2022-12-18T07:03:30;689.07;;;645.57;;
5237;SDS011;2639;49.700;7.962;2022-12-18T07:06:40;613.57;;;576.27;;
5237;SDS011;2639;49.700;7.962;2022-12-18T07:09:51;723.93;;;677.87;;
5237;SDS011;2639;49.700;7.962;2022-12-18T07:13:01;733.70;;;686.33;;
5237;SDS011;2639;49.700;7.962;2022-12-18T07:16:11;794.20;;;742.17;;
5237;SDS011;2639;49.700;7.962;2022-12-18T07:19:28;741.63;;;693.97;;
5237;SDS011;2639;49.700;7.962;2022-12-18T07:22:40;676.63;;;633.43;;
5237;SDS011;2639;49.700;7.962;2022-12-18T07:25:51;723.30;;;677.93;;
5237;SDS011;2639;49.700;7.962;2022-12-18T07:29:00;641.40;;;602.43;;
5237;SDS011;2639;49.700;7.962;2022-12-18T07:32:10;496.27;;;468.03;;
5237;SDS011;2639;49.700;7.962;2022-12-18T07:35:21;604.30;;;568.07;;
5237;SDS011;2639;49.700;7.962;2022-12-18T07:38:33;462.30;;;437.07;;
5237;SDS011;2639;49.700;7.962;2022-12-18T07:41:45;536.47;;;504.80;;
5237;SDS011;2639;49.700;7.962;2022-12-18T07:45:15;531.43;;;500.57;;
5237;SDS011;2639;49.700;7.962;2022-12-18T07:48:24;482.93;;;456.13;;
5237;SDS011;2639;49.700;7.962;2022-12-18T07:51:34;521.10;;;490.77;;
5237;SDS011;2639;49.700;7.962;2022-12-18T07:54:44;515.10;;;485.10;;
5237;SDS011;2639;49.700;7.962;2022-12-18T07:57:55;452.80;;;428.10;;
5237;SDS011;2639;49.700;7.962;2022-12-18T08:01:09;421.97;;;398.77;;
5237;SDS011;2639;49.700;7.962;2022-12-18T08:04:20;529.23;;;498.53;;
5237;SDS011;2639;49.700;7.962;2022-12-18T08:07:29;754.00;;;706.30;;
5237;SDS011;2639;49.700;7.962;2022-12-18T08:10:39;698.33;;;655.43;;
5237;SDS011;2639;49.700;7.962;2022-12-18T08:13:50;765.57;;;716.87;;
5237;SDS011;2639;49.700;7.962;2022-12-18T08:17:00;800.23;;;747.43;;
5237;SDS011;2639;49.700;7.962;2022-12-18T08:20:10;759.13;;;710.40;;
5237;SDS011;2639;49.700;7.962;2022-12-18T08:23:22;643.13;;;603.77;;
5237;SDS011;2639;49.700;7.962;2022-12-18T08:26:36;623.13;;;585.40;;
5237;SDS011;2639;49.700;7.962;2022-12-18T08:29:47;675.37;;;633.23;;
5237;SDS011;2639;49.700;7.962;2022-12-18T08:32:56;635.97;;;597.13;;
5237;SDS011;2639;49.700;7.962;2022-12-18T08:36:06;662.30;;;621.70;;
5237;SDS011;2639;49.700;7.962;2022-12-18T08:39:18;677.43;;;635.57;;
5237;SDS011;2639;49.700;7.962;2022-12-18T08:42:27;642.87;;;603.40;;
5237;SDS011;2639;49.700;7.962;2022-12-18T08:45:53;573.07;;;539.43;;
5237;SDS011;2639;49.700;7.962;2022-12-18T08:49:03;633.20;;;596.03;;
5237;SDS011;2639;49.700;7.962;2022-12-18T08:52:14;722.97;;;678.53;;
5237;SDS011;2639;49.700;7.962;2022-12-18T08:55:24;719.87;;;675.97;;
5237;SDS011;2639;49.700;7.962;2022-12-18T08:58:33;667.43;;;627.53;;
5237;SDS011;2639;49.700;7.962;2022-12-18T09:01:45;729.10;;;684.10;;
5237;SDS011;2639;49.700;7.962;2022-12-18T09:04:55;788.70;;;739.07;;
5237;SDS011;2639;49.700;7.962;2022-12-18T09:08:05;796.03;;;746.73;;
5237;SDS011;2639;49.700;7.962;2022-12-18T09:11:15;800.30;;;749.63;;
5237;SDS011;2639;49.700;7.962;2022-12-18T09:14:29;773.80;;;725.03;;
5237;SDS011;2639;49.700;7.962;2022-12-18T09:17:40;779.53;;;730.33;;
5237;SDS011;2639;49.700;7.962;2022-12-18T09:20:49;776.13;;;725.83;;
5237;SDS011;2639;49.700;7.962;2022-12-18T09:24:00;780.50;;;731.53;;
5237;SDS011;2639;49.700;7.962;2022-12-18T09:27:10;799.03;;;747.77;;
5237;SDS011;2639;49.700;7.962;2022-12-18T09:30:23;796.80;;;745.17;;
5237;SDS011;2639;49.700;7.962;2022-12-18T09:33:34;786.13;;;735.70;;
5237;SDS011;2639;49.700;7.962;2022-12-18T09:36:44;799.93;;;747.17;;
5237;SDS011;2639;49.700;7.962;2022-12-18T09:39:55;849.80;;;791.70;;
5237;SDS011;2639;49.700;7.962;2022-12-18T09:43:05;834.20;;;778.07;;
5237;SDS011;2639;49.700;7.962;2022-12-18T09:46:20;844.47;;;788.37;;
5237;SDS011;2639;49.700;7.962;2022-12-18T09:49:39;794.57;;;743.33;;
5237;SDS011;2639;49.700;7.962;2022-12-18T09:52:53;814.97;;;762.87;;
5237;SDS011;2639;49.700;7.962;2022-12-18T09:56:06;849.27;;;793.23;;
5237;SDS011;2639;49.700;7.962;2022-12-18T09:59:26;838.50;;;783.50;;
5237;SDS011;2639;49.700;7.962;2022-12-18T10:02:44;816.10;;;762.90;;
5237;SDS011;2639;49.700;7.962;2022-12-18T10:05:59;835.53;;;779.90;;
5237;SDS011;2639;49.700;7.962;2022-12-18T10:09:17;809.33;;;756.77;;
5237;SDS011;2639;49.700;7.962;2022-12-18T10:12:37;831.23;;;775.87;;
5237;SDS011;2639;49.700;7.962;2022-12-18T10:15:59;869.20;;;811.20;;
5237;SDS011;2639;49.700;7.962;2022-12-18T10:19:24;840.97;;;784.70;;
5237;SDS011;2639;49.700;7.962;2022-12-18T10:22:48;833.43;;;777.77;;
5237;SDS011;2639;49.700;7.962;2022-12-18T10:26:05;835.40;;;780.03;;
5237;SDS011;2639;49.700;7.962;2022-12-18T10:29:15;879.27;;;820.07;;
5237;SDS011;2639;49.700;7.962;2022-12-18T10:32:27;873.60;;;813.47;;
5237;SDS011;2639;49.700;7.962;2022-12-18T10:35:38;820.10;;;766.03;;
5237;SDS011;2639;49.700;7.962;2022-12-18T10:38:52;849.53;;;793.83;;
5237;SDS011;2639;49.700;7.962;2022-12-18T10:42:09;808.87;;;756.33;;
5237;SDS011;2639;49.700;7.962;2022-12-18T10:45:21;845.60;;;789.13;;
5237;SDS011;2639;49.700;7.962;2022-12-18T10:48:31;836.93;;;780.63;;
5237;SDS011;2639;49.700;7.962;2022-12-18T10:51:42;807.83;;;755.57;;
5237;SDS011;2639;49.700;7.962;2022-12-18T10:54:54;828.97;;;773.83;;
5237;SDS011;2639;49.700;7.962;2022-12-18T10:58:13;827.87;;;773.97;;
5237;SDS011;2639;49.700;7.962;2022-12-18T11:01:45;762.83;;;714.23;;
5237;SDS011;2639;49.700;7.962;2022-12-18T11:04:57;815.27;;;762.53;;
5237;SDS011;2639;49.700;7.962;2022-12-18T11:08:11;763.83;;;716.60;;
5237;SDS011;2639;49.700;7.962;2022-12-18T11:11:32;826.10;;;771.93;;
5237;SDS011;2639;49.700;7.962;2022-12-18T11:14:43;821.40;;;766.37;;
5237;SDS011;2639;49.700;7.962;2022-12-18T11:17:56;795.33;;;744.93;;
5237;SDS011;2639;49.700;7.962;2022-12-18T11:21:06;774.63;;;725.90;;
5237;SDS011;2639;49.700;7.962;2022-12-18T11:24:19;775.50;;;727.57;;
5237;SDS011;2639;49.700;7.962;2022-12-18T11:27:35;766.97;;;719.33;;
5237;SDS011;2639;49.700;7.962;2022-12-18T11:30:46;825.67;;;771.50;;
5237;SDS011;2639;49.700;7.962;2022-12-18T11:33:58;801.30;;;750.37;;
5237;SDS011;2639;49.700;7.962;2022-12-18T11:37:31;767.30;;;719.17;;
5237;SDS011;2639;49.700;7.962;2022-12-18T11:40:42;745.77;;;699.43;;
5237;SDS011;2639;49.700;7.962;2022-12-18T11:43:58;833.83;;;777.53;;
5237;SDS011;2639;49.700;7.962;2022-12-18T11:47:13;830.13;;;775.67;;
5237;SDS011;2639;49.700;7.962;2022-12-18T11:50:32;821.00;;;768.53;;
5237;SDS011;2639;49.700;7.962;2022-12-18T11:53:55;822.80;;;768.73;;
5237;SDS011;2639;49.700;7.962;2022-12-18T11:57:07;815.67;;;761.97;;
5237;SDS011;2639;49.700;7.962;2022-12-18T12:00:26;785.67;;;735.27;;
5237;SDS011;2639;49.700;7.962;2022-12-18T12:03:39;776.20;;;728.03;;
5237;SDS011;2639;49.700;7.962;2022-12-18T12:07:10;834.70;;;778.93;;
5237;SDS011;2639;49.700;7.962;2022-12-18T12:10:31;866.90;;;806.67;;
5237;SDS011;2639;49.700;7.962;2022-12-18T12:13:53;848.97;;;791.43;;
5237;SDS011;2639;49.700;7.962;2022-12-18T12:17:17;817.17;;;764.77;;
5237;SDS011;2639;49.700;7.962;2022-12-18T12:20:38;780.13;;;731.77;;
5237;SDS011;2639;49.700;7.962;2022-12-18T12:23:58;811.00;;;758.13;;
5237;SDS011;2639;49.700;7.962;2022-12-18T12:27:16;834.87;;;781.07;;
5237;SDS011;2639;49.700;7.962;2022-12-18T12:30:35;782.60;;;732.93;;
5237;SDS011;2639;49.700;7.962;2022-12-18T12:33:56;739.60;;;694.33;;
5237;SDS011;2639;49.700;7.962;2022-12-18T12:37:20;780.87;;;731.83;;
5237;SDS011;2639;49.700;7.962;2022-12-18T12:40:39;771.73;;;723.00;;
5237;SDS011;2639;49.700;7.962;2022-12-18T12:44:13;732.90;;;687.47;;
5237;SDS011;2639;49.700;7.962;2022-12-18T12:47:27;748.60;;;702.33;;
5237;SDS011;2639;49.700;7.962;2022-12-18T12:50:42;767.60;;;719.70;;
5237;SDS011;2639;49.700;7.962;2022-12-18T12:53:54;762.50;;;715.30;;
5237;SDS011;2639;49.700;7.962;2022-12-18T12:57:06;763.20;;;715.33;;
5237;SDS011;2639;49.700;7.962;2022-12-18T13:00:23;747.53;;;701.37;;
5237;SDS011;2639;49.700;7.962;2022-12-18T13:03:36;769.87;;;721.57;;
5237;SDS011;2639;49.700;7.962;2022-12-18T13:06:56;749.67;;;703.03;;
5237;SDS011;2639;49.700;7.962;2022-12-18T13:10:22;800.27;;;750.20;;
5237;SDS011;2639;49.700;7.962;2022-12-18T13:13:40;743.57;;;696.83;;
5237;SDS011;2639;49.700;7.962;2022-12-18T13:20:25;732.93;;;688.50;;
5237;SDS011;2639;49.700;7.962;2022-12-18T13:23:45;767.83;;;719.20;;
5237;SDS011;2639;49.700;7.962;2022-12-18T13:26:54;840.90;;;786.03;;
5237;SDS011;2639;49.700;7.962;2022-12-18T13:30:11;830.00;;;776.07;;
5237;SDS011;2639;49.700;7.962;2022-12-18T13:33:52;781.07;;;731.23;;
5237;SDS011;2639;49.700;7.962;2022-12-18T13:37:41;814.97;;;762.87;;
5237;SDS011;2639;49.700;7.962;2022-12-18T13:40:56;777.73;;;728.63;;
5237;SDS011;2639;49.700;7.962;2022-12-18T13:44:10;755.47;;;707.63;;
5237;SDS011;2639;49.700;7.962;2022-12-18T13:47:24;745.07;;;698.63;;
5237;SDS011;2639;49.700;7.962;2022-12-18T13:50:37;693.53;;;651.50;;
5237;SDS011;2639;49.700;7.962;2022-12-18T13:53:49;725.60;;;680.70;;
5237;SDS011;2639;49.700;7.962;2022-12-18T13:57:02;762.77;;;715.10;;
5237;SDS011;2639;49.700;7.962;2022-12-18T14:00:23;752.27;;;705.13;;
5237;SDS011;2639;49.700;7.962;2022-12-18T14:03:35;770.27;;;722.17;;
5237;SDS011;2639;49.700;7.962;2022-12-18T14:06:45;815.47;;;761.40;;
5237;SDS011;2639;49.700;7.962;2022-12-18T14:09:57;810.30;;;756.60;;
5237;SDS011;2639;49.700;7.962;2022-12-18T14:13:29;774.37;;;725.73;;
5237;SDS011;2639;49.700;7.962;2022-12-18T14:16:42;768.93;;;720.60;;
5237;SDS011;2639;49.700;7.962;2022-12-18T14:19:53;745.67;;;699.13;;
5237;SDS011;2639;49.700;7.962;2022-12-18T14:23:02;762.17;;;714.33;;
5237;SDS011;2639;49.700;7.962;2022-12-18T14:26:20;740.83;;;694.70;;
5237;SDS011;2639;49.700;7.962;2022-12-18T14:29:35;690.60;;;648.43;;
5237;SDS011;2639;49.700;7.962;2022-12-18T14:32:46;707.10;;;663.40;;
5237;SDS011;2639;49.700;7.962;2022-12-18T14:36:13;706.60;;;663.40;;
5237;SDS011;2639;49.700;7.962;2022-12-18T14:39:25;821.33;;;768.30;;
5237;SDS011;2639;49.700;7.962;2022-12-18T14:42:35;740.43;;;693.93;;
5237;SDS011;2639;49.700;7.962;2022-12-18T14:45:47;764.53;;;716.40;;
5237;SDS011;2639;49.700;7.962;2022-12-18T14:48:58;761.10;;;713.27;;
5237;SDS011;2639;49.700;7.962;2022-12-18T14:52:13;774.60;;;724.83;;
5237;SDS011;2639;49.700;7.962;2022-12-18T14:55:30;766.97;;;717.90;;
5237;SDS011;2639;49.700;7.962;2022-12-18T14:58:43;833.10;;;778.03;;
5237;SDS011;2639;49.700;7.962;2022-12-18T15:01:59;794.93;;;743.53;;
5237;SDS011;2639;49.700;7.962;2022-12-18T15:05:16;778.93;;;728.97;;
5237;SDS011;2639;49.700;7.962;2022-12-18T15:08:31;801.37;;;748.73;;
5237;SDS011;2639;49.700;7.962;2022-12-18T15:11:46;801.43;;;749.60;;
5237;SDS011;2639;49.700;7.962;2022-12-18T15:14:57;820.87;;;767.97;;
5237;SDS011;2639;49.700;7.962;2022-12-18T15:18:11;780.77;;;730.60;;
5237;SDS011;2639;49.700;7.962;2022-12-18T15:21:26;814.43;;;760.57;;
5237;SDS011;2639;49.700;7.962;2022-12-18T15:24:40;778.60;;;728.27;;
5237;SDS011;2639;49.700;7.962;2022-12-18T15:27:51;850.70;;;793.63;;
5237;SDS011;2639;49.700;7.962;2022-12-18T15:31:03;852.13;;;796.43;;
5237;SDS011;2639;49.700;7.962;2022-12-18T15:34:19;873.10;;;816.60;;
5237;SDS011;2639;49.700;7.962;2022-12-18T15:37:32;929.93;;;865.30;;
5237;SDS011;2639;49.700;7.962;2022-12-18T15:40:43;891.73;;;831.43;;
5237;SDS011;2639;49.700;7.962;2022-12-18T15:43:55;861.30;;;803.00;;
5237;SDS011;2639;49.700;7.962;2022-12-18T15:47:10;892.43;;;831.27;;
5237;SDS011;2639;49.700;7.962;2022-12-18T15:50:24;879.70;;;819.27;;
5237;SDS011;2639;49.700;7.962;2022-12-18T15:53:37;855.40;;;797.43;;
5237;SDS011;2639;49.700;7.962;2022-12-18T15:56:50;868.30;;;809.67;;
5237;SDS011;2639;49.700;7.962;2022-12-18T16:00:14;867.33;;;808.87;;
5237;SDS011;2639;49.700;7.962;2022-12-18T16:03:26;862.23;;;806.23;;
5237;SDS011;2639;49.700;7.962;2022-12-18T16:06:38;876.57;;;817.13;;
5237;SDS011;2639;49.700;7.962;2022-12-18T16:10:10;887.43;;;828.17;;
5237;SDS011;2639;49.700;7.962;2022-12-18T16:13:22;891.03;;;833.17;;
5237;SDS011;2639;49.700;7.962;2022-12-18T16:16:33;897.53;;;836.30;;
5237;SDS011;2639;49.700;7.962;2022-12-18T16:19:46;905.50;;;843.90;;
5237;SDS011;2639;49.700;7.962;2022-12-18T16:22:59;909.67;;;849.83;;
5237;SDS011;2639;49.700;7.962;2022-12-18T16:26:10;898.90;;;835.20;;
5237;SDS011;2639;49.700;7.962;2022-12-18T16:29:21;909.17;;;846.17;;
5237;SDS011;2639;49.700;7.962;2022-12-18T16:32:36;903.73;;;841.17;;
5237;SDS011;2639;49.700;7.962;2022-12-18T16:35:50;922.77;;;857.60;;
5237;SDS011;2639;49.700;7.962;2022-12-18T16:39:04;898.50;;;836.77;;
5237;SDS011;2639;49.700;7.962;2022-12-18T16:42:16;888.33;;;827.90;;
5237;SDS011;2639;49.700;7.962;2022-12-18T16:45:29;902.60;;;840.47;;
5237;SDS011;2639;49.700;7.962;2022-12-18T16:48:42;892.40;;;831.57;;
5237;SDS011;2639;49.700;7.962;2022-12-18T16:51:53;871.80;;;812.20;;
5237;SDS011;2639;49.700;7.962;2022-12-18T16:55:10;861.87;;;804.37;;
5237;SDS011;2639;49.700;7.962;2022-12-18T16:58:21;890.93;;;830.03;;
5237;SDS011;2639;49.700;7.962;2022-12-18T17:01:32;896.20;;;834.50;;
5237;SDS011;2639;49.700;7.962;2022-12-18T17:04:44;942.33;;;876.27;;
5237;SDS011;2639;49.700;7.962;2022-12-18T17:07:55;908.47;;;848.20;;
5237;SDS011;2639;49.700;7.962;2022-12-18T17:11:08;911.57;;;848.63;;
5237;SDS011;2639;49.700;7.962;2022-12-18T17:14:19;899.70;;;838.70;;
5237;SDS011;2639;49.700;7.962;2022-12-18T17:17:32;880.60;;;820.97;;
5237;SDS011;2639;49.700;7.962;2022-12-18T17:20:44;943.67;;;878.27;;
5237;SDS011;2639;49.700;7.962;2022-12-18T17:23:58;890.33;;;831.33;;
5237;SDS011;2639;49.700;7.962;2022-12-18T17:27:12;916.90;;;853.47;;
5237;SDS011;2639;49.700;7.962;2022-12-18T17:30:23;902.17;;;840.40;;
5237;SDS011;2639;49.700;7.962;2022-12-18T17:33:35;854.40;;;797.67;;
5237;SDS011;2639;49.700;7.962;2022-12-18T17:36:47;869.77;;;811.17;;
5237;SDS011;2639;49.700;7.962;2022-12-18T17:39:58;879.07;;;819.90;;
5237;SDS011;2639;49.700;7.962;2022-12-18T17:43:09;874.23;;;815.97;;
5237;SDS011;2639;49.700;7.962;2022-12-18T17:46:21;877.90;;;818.43;;
5237;SDS011;2639;49.700;7.962;2022-12-18T17:49:31;905.43;;;843.87;;
5237;SDS011;2639;49.700;7.962;2022-12-18T17:52:42;886.93;;;827.40;;
5237;SDS011;2639;49.700;7.962;2022-12-18T17:55:52;891.97;;;831.20;;
5237;SDS011;2639;49.700;7.962;2022-12-18T17:59:04;886.73;;;825.37;;
5237;SDS011;2639;49.700;7.962;2022-12-18T18:02:14;891.47;;;826.30;;
5237;SDS011;2639;49.700;7.962;2022-12-18T18:05:24;842.70;;;785.60;;
5237;SDS011;2639;49.700;7.962;2022-12-18T18:08:35;829.37;;;774.63;;
5237;SDS011;2639;49.700;7.962;2022-12-18T18:11:46;825.07;;;770.20;;
5237;SDS011;2639;49.700;7.962;2022-12-18T18:15:10;804.27;;;752.77;;
5237;SDS011;2639;49.700;7.962;2022-12-18T18:18:21;797.60;;;746.10;;
5237;SDS011;2639;49.700;7.962;2022-12-18T18:21:33;781.60;;;731.03;;
5237;SDS011;2639;49.700;7.962;2022-12-18T18:24:48;802.53;;;749.93;;
5237;SDS011;2639;49.700;7.962;2022-12-18T18:27:58;794.63;;;743.33;;
5237;SDS011;2639;49.700;7.962;2022-12-18T18:31:11;833.37;;;777.10;;
5237;SDS011;2639;49.700;7.962;2022-12-18T18:34:25;808.40;;;756.13;;
5237;SDS011;2639;49.700;7.962;2022-12-18T18:37:37;817.53;;;764.33;;
5237;SDS011;2639;49.700;7.962;2022-12-18T18:40:56;800.43;;;748.53;;
5237;SDS011;2639;49.700;7.962;2022-12-18T18:44:08;779.97;;;729.63;;
5237;SDS011;2639;49.700;7.962;2022-12-18T18:47:21;794.53;;;743.17;;
5237;SDS011;2639;49.700;7.962;2022-12-18T18:50:32;817.00;;;762.70;;
5237;SDS011;2639;49.700;7.962;2022-12-18T18:53:43;809.00;;;755.47;;
5237;SDS011;2639;49.700;7.962;2022-12-18T18:56:54;822.03;;;766.53;;
5237;SDS011;2639;49.700;7.962;2022-12-18T19:00:24;815.70;;;762.80;;
5237;SDS011;2639;49.700;7.962;2022-12-18T19:03:37;808.33;;;756.00;;
5237;SDS011;2639;49.700;7.962;2022-12-18T19:06:49;846.03;;;788.90;;
5237;SDS011;2639;49.700;7.962;2022-12-18T19:10:00;772.00;;;722.27;;
5237;SDS011;2639;49.700;7.962;2022-12-18T19:13:12;751.17;;;703.33;;
5237;SDS011;2639;49.700;7.962;2022-12-18T19:16:28;732.60;;;686.27;;
5237;SDS011;2639;49.700;7.962;2022-12-18T19:19:40;820.80;;;768.03;;
5237;SDS011;2639;49.700;7.962;2022-12-18T19:22:50;826.63;;;773.10;;
5237;SDS011;2639;49.700;7.962;2022-12-18T19:26:03;760.70;;;711.50;;
5237;SDS011;2639;49.700;7.962;2022-12-18T19:29:35;699.80;;;656.23;;
5237;SDS011;2639;49.700;7.962;2022-12-18T19:32:45;739.87;;;692.67;;
5237;SDS011;2639;49.700;7.962;2022-12-18T19:35:56;751.40;;;703.63;;
5237;SDS011;2639;49.700;7.962;2022-12-18T19:39:07;769.87;;;720.80;;
5237;SDS011;2639;49.700;7.962;2022-12-18T19:42:19;825.77;;;772.07;;
5237;SDS011;2639;49.700;7.962;2022-12-18T19:45:39;786.93;;;737.43;;
5237;SDS011;2639;49.700;7.962;2022-12-18T19:48:49;821.90;;;769.83;;
5237;SDS011;2639;49.700;7.962;2022-12-18T19:52:02;767.20;;;718.97;;
5237;SDS011;2639;49.700;7.962;2022-12-18T19:55:12;766.70;;;716.90;;
5237;SDS011;2639;49.700;7.962;2022-12-18T19:58:23;759.50;;;710.77;;
5237;SDS011;2639;49.700;7.962;2022-12-18T20:01:33;785.90;;;736.23;;
5237;SDS011;2639;49.700;7.962;2022-12-18T20:04:44;825.70;;;772.30;;
5237;SDS011;2639;49.700;7.962;2022-12-18T20:07:57;797.63;;;746.60;;
5237;SDS011;2639;49.700;7.962;2022-12-18T20:11:07;740.33;;;693.27;;
5237;SDS011;2639;49.700;7.962;2022-12-18T20:14:19;755.00;;;706.10;;
5237;SDS011;2639;49.700;7.962;2022-12-18T20:17:31;712.40;;;668.53;;
5237;SDS011;2639;49.700;7.962;2022-12-18T20:20:41;782.60;;;730.63;;
5237;SDS011;2639;49.700;7.962;2022-12-18T20:23:52;707.17;;;663.73;;
5237;SDS011;2639;49.700;7.962;2022-12-18T20:27:03;731.97;;;686.40;;
5237;SDS011;2639;49.700;7.962;2022-12-18T20:30:19;674.77;;;633.20;;
5237;SDS011;2639;49.700;7.962;2022-12-18T20:33:29;821.80;;;769.17;;
